Time;durP1;ratioP1;P1;durP2;ratioP2;P2;SDS_P1;SDS_P2;PMS_P1;PMS_P2;Temp;Humidity;BMP_temperature;BMP_pressure;BME280_temperature;BME280_humidity;BME280_pressure;Samples;Min_cycle;Max_cycle;Signal;HPM_P1;HPM_P2
2021/04/01 00:01:23;;;;;;;14.93;5.07;;;15.90;31.90;;;;;;5058251;28;20493;-85
2021/04/01 00:03:51;;;;;;;16.30;6.20;;;15.90;31.30;;;;;;5064357;28;20551;-85
2021/04/01 00:06:17;;;;;;;17.90;5.07;;;16.10;31.90;;;;;;5068014;28;20449;-85
2021/04/01 00:08:45;;;;;;;20.80;4.70;;;16.20;32.20;;;;;;5063600;28;20477;-85
2021/04/01 00:11:12;;;;;;;8.90;5.13;;;16.50;33.20;;;;;;5058502;28;20458;-84
2021/04/01 00:13:38;;;;;;;10.60;5.20;;;16.70;31.10;;;;;;5053731;28;20449;-84
2021/04/01 00:16:06;;;;;;;9.23;4.23;;;16.70;31.60;;;;;;5053445;28;20462;-84
2021/04/01 00:18:32;;;;;;;9.90;4.50;;;16.90;34.00;;;;;;5053938;28;20518;-85
2021/04/01 00:20:59;;;;;;;11.10;5.80;;;17.00;32.60;;;;;;5054438;28;20833;-85
2021/04/01 00:23:26;;;;;;;9.27;5.00;;;17.00;31.10;;;;;;5055716;28;20451;-85
2021/04/01 00:25:53;;;;;;;8.10;4.50;;;17.10;32.50;;;;;;5057681;28;20454;-85
2021/04/01 00:28:19;;;;;;;6.50;4.77;;;17.30;33.70;;;;;;5060937;28;20456;-85
2021/04/01 00:30:46;;;;;;;8.60;4.97;;;17.30;32.70;;;;;;5058124;28;20922;-84
2021/04/01 00:33:12;;;;;;;14.43;6.83;;;17.30;30.80;;;;;;5059631;28;20452;-85
2021/04/01 00:35:39;;;;;;;11.27;6.20;;;16.70;30.00;;;;;;5057298;28;20474;-85
2021/04/01 00:38:07;;;;;;;7.63;4.50;;;16.00;31.40;;;;;;5055309;28;20469;-84
2021/04/01 00:40:34;;;;;;;14.63;6.00;;;16.10;33.10;;;;;;5058889;28;20614;-84
2021/04/01 00:43:00;;;;;;;18.53;6.73;;;15.70;31.50;;;;;;5058504;28;20553;-83
2021/04/01 00:45:26;;;;;;;10.80;5.37;;;15.20;32.80;;;;;;5060060;28;20468;-84
2021/04/01 00:47:54;;;;;;;10.20;6.17;;;15.00;35.40;;;;;;5059664;28;20441;-84
2021/04/01 00:50:22;;;;;;;19.50;5.50;;;15.00;34.40;;;;;;5059252;28;20798;-84
2021/04/01 00:52:49;;;;;;;8.57;4.93;;;14.90;34.90;;;;;;5058850;28;20531;-84
2021/04/01 00:55:16;;;;;;;9.57;5.53;;;15.00;34.00;;;;;;5058373;28;20492;-85
2021/04/01 00:57:46;;;;;;;11.13;5.50;;;15.10;35.80;;;;;;5057930;28;20468;-85
2021/04/01 01:00:16;;;;;;;8.67;5.00;;;15.50;33.10;;;;;;5058410;28;20523;-85
2021/04/01 01:02:42;;;;;;;12.10;5.40;;;15.50;33.70;;;;;;5057407;28;20943;-84
2021/04/01 01:05:12;;;;;;;8.40;5.30;;;15.50;33.50;;;;;;5060148;28;20981;-85
2021/04/01 01:07:39;;;;;;;11.67;5.90;;;15.60;33.30;;;;;;5057960;28;20476;-85
2021/04/01 01:10:08;;;;;;;8.70;5.07;;;15.40;34.00;;;;;;5056818;28;20977;-85
2021/04/01 01:12:35;;;;;;;5.87;4.50;;;15.30;34.50;;;;;;5056319;28;20531;-84
2021/04/01 01:15:02;;;;;;;6.30;4.50;;;15.20;34.70;;;;;;5056088;28;20515;-85
2021/04/01 01:17:29;;;;;;;7.37;5.03;;;14.90;34.50;;;;;;5057942;28;20560;-85
2021/04/01 01:19:55;;;;;;;10.50;6.10;;;14.70;35.50;;;;;;5056181;28;20958;-84
2021/04/01 01:22:22;;;;;;;20.00;6.00;;;14.60;35.40;;;;;;5055976;28;20459;-84
2021/04/01 01:24:51;;;;;;;13.17;5.60;;;14.90;34.90;;;;;;5056191;28;20897;-84
2021/04/01 01:27:18;;;;;;;12.60;6.10;;;14.80;35.10;;;;;;5055719;28;20539;-84
2021/04/01 01:29:47;;;;;;;9.93;4.83;;;14.70;35.00;;;;;;5055886;28;20480;-84
2021/04/01 01:32:15;;;;;;;7.83;4.90;;;14.80;35.90;;;;;;5056077;28;20944;-85
2021/04/01 01:34:41;;;;;;;8.30;4.87;;;14.70;36.60;;;;;;5056127;28;20455;-85
2021/04/01 01:37:08;;;;;;;19.10;6.00;;;14.50;36.30;;;;;;5055626;28;20942;-85
2021/04/01 01:39:34;;;;;;;14.63;5.33;;;14.60;36.10;;;;;;5055559;28;20559;-84
2021/04/01 01:42:03;;;;;;;11.33;5.70;;;14.50;36.20;;;;;;5055761;28;20433;-84
2021/04/01 01:44:29;;;;;;;11.93;5.43;;;14.40;35.80;;;;;;5056056;28;20452;-84
2021/04/01 01:46:56;;;;;;;10.90;5.80;;;14.20;36.20;;;;;;5055980;28;20452;-84
2021/04/01 01:49:23;;;;;;;11.80;6.27;;;14.20;36.20;;;;;;5055480;28;20460;-85
2021/04/01 01:51:50;;;;;;;11.70;5.43;;;14.00;36.90;;;;;;5055168;28;20432;-85
2021/04/01 01:54:16;;;;;;;16.57;5.90;;;13.80;39.30;;;;;;5055534;28;20480;-84
2021/04/01 01:56:42;;;;;;;19.73;6.77;;;13.70;37.40;;;;;;5055087;28;20981;-85
2021/04/01 01:59:10;;;;;;;12.77;6.37;;;13.70;36.80;;;;;;5055197;28;20522;-85
2021/04/01 02:01:36;;;;;;;8.60;5.30;;;13.80;36.80;;;;;;5056003;28;20444;-85
2021/04/01 02:04:04;;;;;;;9.60;5.00;;;13.70;37.50;;;;;;5056050;28;20545;-87
2021/04/01 02:06:31;;;;;;;17.50;7.17;;;13.90;39.00;;;;;;5056463;28;20547;-85
2021/04/01 02:09:01;;;;;;;20.97;7.93;;;13.90;37.10;;;;;;5055740;28;20440;-85
2021/04/01 02:11:29;;;;;;;15.33;6.23;;;13.80;35.90;;;;;;5055901;28;20460;-84
2021/04/01 02:13:57;;;;;;;13.07;6.07;;;13.80;36.80;;;;;;5055149;28;20543;-83
2021/04/01 02:16:24;;;;;;;10.13;6.10;;;14.00;37.60;;;;;;5055456;28;20445;-84
2021/04/01 02:18:50;;;;;;;13.73;6.53;;;14.10;36.10;;;;;;5055549;28;20626;-84
2021/04/01 02:21:18;;;;;;;14.30;7.43;;;14.00;36.30;;;;;;5055125;28;20464;-84
2021/04/01 02:23:45;;;;;;;6.10;4.40;;;14.00;37.00;;;;;;5054634;28;20444;-84
2021/04/01 02:26:11;;;;;;;11.60;5.50;;;14.10;37.30;;;;;;5055330;28;20531;-83
2021/04/01 02:28:38;;;;;;;9.63;5.50;;;14.40;36.80;;;;;;5055248;28;20443;-85
2021/04/01 02:31:09;;;;;;;12.80;5.67;;;14.50;35.20;;;;;;5055346;28;20879;-83
2021/04/01 02:33:38;;;;;;;16.93;5.63;;;14.70;34.10;;;;;;5055484;28;20424;-84
2021/04/01 02:36:06;;;;;;;12.17;5.77;;;14.90;36.10;;;;;;5055094;28;20444;-84
2021/04/01 02:38:33;;;;;;;9.60;4.83;;;14.90;35.90;;;;;;5054315;28;20444;-85
2021/04/01 02:41:00;;;;;;;8.80;5.33;;;14.70;35.40;;;;;;5054949;28;20550;-83
2021/04/01 02:43:32;;;;;;;12.23;5.23;;;14.50;36.80;;;;;;5054227;28;20828;-84
2021/04/01 02:45:59;;;;;;;9.60;4.97;;;14.70;36.80;;;;;;5054603;28;20428;-84
2021/04/01 02:48:25;;;;;;;20.93;5.57;;;15.30;35.90;;;;;;5055131;28;20911;-84
2021/04/01 02:50:53;;;;;;;11.50;5.63;;;15.40;35.20;;;;;;5056807;28;20492;-84
2021/04/01 02:53:20;;;;;;;18.03;5.80;;;15.10;34.00;;;;;;5056252;28;20428;-84
2021/04/01 02:55:46;;;;;;;9.33;4.97;;;14.70;34.80;;;;;;5056849;28;20480;-84
2021/04/01 02:58:13;;;;;;;13.77;5.93;;;14.40;36.10;;;;;;5061802;28;20503;-83
2021/04/01 03:00:39;;;;;;;19.30;5.53;;;14.10;35.90;;;;;;5061565;28;20541;-84
2021/04/01 03:03:09;;;;;;;10.10;5.63;;;13.80;36.00;;;;;;5056931;28;20460;-84
2021/04/01 03:05:36;;;;;;;20.13;5.90;;;13.60;37.60;;;;;;5058621;28;20436;-84
2021/04/01 03:08:04;;;;;;;9.50;5.50;;;13.70;37.10;;;;;;5058813;28;20460;-85
2021/04/01 03:10:30;;;;;;;10.87;5.73;;;13.80;36.80;;;;;;5058085;28;20466;-84
2021/04/01 03:12:57;;;;;;;8.37;5.10;;;14.00;37.30;;;;;;5058678;28;20523;-85
2021/04/01 03:15:23;;;;;;;10.00;5.30;;;14.10;37.60;;;;;;5057618;28;20460;-85
2021/04/01 03:17:50;;;;;;;23.20;6.13;;;13.90;37.50;;;;;;5077119;28;20429;-86
2021/04/01 03:20:17;;;;;;;13.50;6.20;;;13.50;38.60;;;;;;5077896;28;20484;-85
2021/04/01 03:22:43;;;;;;;33.53;6.40;;;13.60;38.10;;;;;;5078105;28;20530;-85
2021/04/01 03:25:12;;;;;;;11.30;4.87;;;13.60;38.70;;;;;;5063505;28;20441;-84
2021/04/01 03:27:39;;;;;;;18.77;5.70;;;14.10;39.00;;;;;;5074317;28;20433;-86
2021/04/01 03:30:09;;;;;;;8.30;5.23;;;14.10;37.80;;;;;;5077610;28;20456;-86
2021/04/01 03:32:37;;;;;;;18.57;6.30;;;13.90;39.00;;;;;;5077990;28;20443;-86
2021/04/01 03:35:05;;;;;;;14.93;6.00;;;13.70;38.30;;;;;;5077832;28;20435;-87
2021/04/01 03:37:31;;;;;;;18.40;6.30;;;13.80;38.90;;;;;;5065871;28;20439;-84
2021/04/01 03:39:58;;;;;;;11.60;5.20;;;13.80;38.90;;;;;;5055667;28;20643;-84
2021/04/01 03:42:26;;;;;;;13.20;6.27;;;13.60;38.70;;;;;;5055132;28;20841;-84
2021/04/01 03:44:53;;;;;;;9.13;5.60;;;13.30;38.50;;;;;;5054948;28;20595;-83
2021/04/01 03:47:20;;;;;;;13.53;7.17;;;13.00;39.10;;;;;;5060055;28;20439;-84
2021/04/01 03:49:46;;;;;;;8.50;5.20;;;12.90;39.50;;;;;;5073510;28;20456;-84
2021/04/01 03:52:13;;;;;;;16.20;5.53;;;13.10;41.00;;;;;;5074352;28;20412;-84
2021/04/01 03:54:39;;;;;;;11.43;6.40;;;13.20;40.00;;;;;;5071158;28;20435;-85
2021/04/01 03:57:07;;;;;;;11.33;5.63;;;13.00;40.70;;;;;;5062341;28;20455;-84
2021/04/01 03:59:42;;;;;;;9.90;5.20;;;13.10;40.60;;;;;;5063340;28;20500;-84
2021/04/01 04:02:30;;;;;;;10.60;5.10;;;13.40;41.00;;;;;;5062718;28;20791;-84
2021/04/01 04:05:08;;;;;;;8.70;5.70;;;13.40;41.40;;;;;;5062452;28;20478;-84
2021/04/01 04:10:26;;;;;;;9.07;5.70;;;13.20;40.30;;;;;;5054980;28;20535;-84
2021/04/01 04:13:09;;;;;;;20.27;6.97;;;13.20;40.40;;;;;;5054278;28;20475;-83
2021/04/01 04:15:36;;;;;;;11.63;6.03;;;13.20;40.70;;;;;;5058790;28;20444;-84
2021/04/01 04:18:03;;;;;;;14.40;6.57;;;13.20;40.70;;;;;;5058774;28;20436;-84
2021/04/01 04:20:30;;;;;;;14.40;6.70;;;13.20;40.80;;;;;;5058695;28;20919;-84
2021/04/01 04:22:56;;;;;;;13.13;7.57;;;13.30;40.30;;;;;;5060056;28;20526;-84
2021/04/01 04:25:24;;;;;;;23.47;6.77;;;13.00;40.60;;;;;;5058730;28;20424;-84
2021/04/01 04:30:44;;;;;;;12.97;6.90;;;12.60;42.20;;;;;;5024339;28;20499;-84
2021/04/01 04:33:11;;;;;;;18.13;6.60;;;12.70;41.70;;;;;;5059644;28;20511;-84
2021/04/01 04:35:37;;;;;;;12.93;6.53;;;12.80;41.50;;;;;;5058679;28;20527;-84
2021/04/01 04:38:04;;;;;;;10.07;6.37;;;12.70;41.20;;;;;;5059208;28;20474;-84
2021/04/01 04:40:31;;;;;;;17.80;6.53;;;12.90;41.10;;;;;;5058547;28;20553;-83
2021/04/01 04:42:57;;;;;;;18.53;5.10;;;12.70;40.60;;;;;;5058380;28;20459;-83
2021/04/01 04:45:23;;;;;;;9.07;5.47;;;12.90;40.60;;;;;;5058865;28;20525;-84
2021/04/01 04:47:51;;;;;;;23.77;5.37;;;13.00;40.80;;;;;;5058471;28;20448;-84
2021/04/01 04:50:17;;;;;;;10.23;5.57;;;12.90;40.10;;;;;;5058107;28;20494;-83
2021/04/01 04:52:44;;;;;;;11.77;6.30;;;13.00;40.20;;;;;;5058059;28;20818;-84
2021/04/01 04:55:12;;;;;;;11.23;5.40;;;13.20;39.60;;;;;;5058353;28;20483;-84
2021/04/01 04:57:43;;;;;;;8.43;5.20;;;13.50;40.40;;;;;;5058510;28;20433;-84
2021/04/01 05:05:41;;;;;;;8.53;5.00;;;14.30;38.50;;;;;;5056574;28;20719;-84
2021/04/01 05:08:07;;;;;;;31.30;6.23;;;14.60;37.90;;;;;;5057077;28;21008;-84
2021/04/01 05:10:33;;;;;;;11.70;5.77;;;14.90;36.80;;;;;;5056300;28;20543;-85
2021/04/01 05:13:08;;;;;;;6.77;4.57;;;14.90;37.00;;;;;;5055953;28;20531;-85
2021/04/01 05:15:41;;;;;;;20.60;6.07;;;15.20;38.10;;;;;;5059576;28;20467;-85
2021/04/01 05:18:23;;;;;;;10.63;5.23;;;15.10;36.40;;;;;;5059645;28;20486;-85
2021/04/01 05:20:51;;;;;;;13.40;5.90;;;14.60;38.20;;;;;;5059056;28;20517;-84
2021/04/01 05:28:56;;;;;;;10.33;5.27;;;14.10;38.20;;;;;;5036328;28;20421;-84
2021/04/01 05:31:23;;;;;;;20.53;6.50;;;14.00;39.10;;;;;;5035947;28;20576;-84
2021/04/01 05:33:51;;;;;;;11.70;6.00;;;14.00;39.10;;;;;;5035785;28;20434;-84
2021/04/01 05:36:21;;;;;;;16.17;6.47;;;14.10;38.30;;;;;;5035840;28;20468;-84
2021/04/01 05:38:50;;;;;;;11.90;5.90;;;14.30;38.10;;;;;;5036312;28;20464;-85
2021/04/01 05:41:16;;;;;;;11.37;5.70;;;14.40;38.20;;;;;;5035989;28;21080;-84
2021/04/01 05:43:47;;;;;;;10.03;6.07;;;14.80;37.80;;;;;;5041075;28;21011;-83
2021/04/01 05:46:16;;;;;;;14.60;5.93;;;14.90;37.10;;;;;;5056430;28;20447;-84
2021/04/01 05:48:58;;;;;;;11.17;5.73;;;14.90;38.00;;;;;;5055872;28;20452;-83
2021/04/01 05:51:46;;;;;;;11.20;5.50;;;15.10;36.80;;;;;;5058701;28;20486;-83
2021/04/01 06:00:29;;;;;;;14.50;5.73;;;15.30;37.30;;;;;;5055679;28;20475;-84
2021/04/01 06:03:17;;;;;;;11.07;5.57;;;15.60;36.80;;;;;;5056727;28;20536;-83
2021/04/01 06:05:46;;;;;;;15.67;5.70;;;15.60;35.90;;;;;;5056659;28;20440;-83
2021/04/01 06:08:16;;;;;;;10.10;6.00;;;15.90;36.00;;;;;;5055157;28;20960;-84
2021/04/01 06:10:43;;;;;;;13.63;5.67;;;16.00;35.90;;;;;;5056035;28;20555;-84
2021/04/01 06:13:10;;;;;;;10.27;6.17;;;16.10;36.10;;;;;;5059067;28;21008;-84
2021/04/01 06:15:44;;;;;;;17.67;5.23;;;16.30;34.60;;;;;;5058492;28;20561;-85
2021/04/01 06:18:12;;;;;;;8.03;4.97;;;16.70;34.20;;;;;;5060607;28;20424;-84
2021/04/01 06:20:40;;;;;;;13.00;5.70;;;16.80;33.00;;;;;;5060143;28;20490;-84
2021/04/01 06:23:07;;;;;;;9.70;5.77;;;17.10;33.20;;;;;;5064796;28;20471;-84
2021/04/01 06:25:37;;;;;;;15.53;5.80;;;17.00;33.10;;;;;;5062811;28;20467;-84
2021/04/01 06:28:08;;;;;;;9.33;5.87;;;17.30;32.70;;;;;;5058008;28;20459;-83
2021/04/01 06:30:48;;;;;;;13.90;6.20;;;17.60;30.70;;;;;;5057565;28;20485;-84
2021/04/01 06:33:15;;;;;;;21.90;5.50;;;17.60;31.20;;;;;;5057503;28;20444;-83
2021/04/01 06:35:49;;;;;;;10.67;5.87;;;18.20;30.80;;;;;;5060349;28;20448;-84
2021/04/01 06:38:22;;;;;;;10.90;6.30;;;19.10;30.10;;;;;;5058516;28;20444;-84
2021/04/01 06:40:53;;;;;;;13.23;5.40;;;19.90;29.10;;;;;;5057778;28;20491;-84
2021/04/01 06:43:45;;;;;;;11.10;5.43;;;19.70;28.60;;;;;;5057197;28;20482;-84
2021/04/01 06:46:15;;;;;;;12.20;5.47;;;19.80;28.70;;;;;;5056799;28;20493;-84
2021/04/01 06:51:27;;;;;;;11.77;5.33;;;20.60;28.50;;;;;;5043773;28;20444;-85
2021/04/01 06:54:02;;;;;;;10.60;5.70;;;20.70;29.10;;;;;;5057499;28;20435;-84
2021/04/01 06:56:39;;;;;;;11.90;6.87;;;20.70;29.00;;;;;;5057934;28;20440;-84
2021/04/01 06:59:14;;;;;;;8.50;5.77;;;21.20;28.10;;;;;;5055386;28;20468;-85
2021/04/01 07:01:48;;;;;;;16.20;6.13;;;21.50;27.60;;;;;;5055649;28;20435;-85
2021/04/01 07:04:15;;;;;;;14.37;6.20;;;22.20;27.30;;;;;;5054993;28;20439;-84
2021/04/01 07:06:45;;;;;;;15.20;6.20;;;23.20;27.00;;;;;;5056571;28;20800;-85
2021/04/01 07:09:34;;;;;;;21.53;6.23;;;23.90;26.00;;;;;;5055658;28;20558;-85
2021/04/01 07:12:15;;;;;;;10.90;5.17;;;23.70;25.90;;;;;;5057372;28;20461;-85
2021/04/01 07:14:44;;;;;;;10.03;4.80;;;23.20;26.30;;;;;;5055692;28;20448;-85
2021/04/01 07:17:16;;;;;;;14.00;6.17;;;23.50;26.50;;;;;;5055084;28;20468;-85
2021/04/01 07:19:53;;;;;;;10.27;6.30;;;24.20;25.50;;;;;;5055024;28;20495;-86
2021/04/01 07:22:57;;;;;;;15.90;6.20;;;24.40;25.40;;;;;;5054879;28;20809;-85
2021/04/01 07:47:58;;;;;;;18.77;6.50;;;24.30;24.80;;;;;;5053408;28;20946;-84
2021/04/01 07:50:26;;;;;;;16.00;6.67;;;25.10;24.50;;;;;;5060581;28;20464;-85
2021/04/01 07:52:55;;;;;;;15.73;7.23;;;25.30;24.10;;;;;;5058219;28;20429;-85
2021/04/01 07:55:27;;;;;;;17.77;7.40;;;25.70;24.00;;;;;;5058160;28;20464;-84
2021/04/01 07:58:11;;;;;;;22.37;6.80;;;26.00;23.40;;;;;;5059167;28;20428;-86
2021/04/01 08:00:45;;;;;;;11.20;5.83;;;26.50;23.30;;;;;;5059137;28;20988;-85
2021/04/01 08:06:04;;;;;;;12.83;5.93;;;26.70;21.90;;;;;;5061525;28;20466;-85
2021/04/01 08:08:36;;;;;;;14.63;6.47;;;26.10;22.80;;;;;;5062436;28;20431;-84
2021/04/01 08:11:06;;;;;;;15.87;6.50;;;26.30;23.20;;;;;;5061686;28;20456;-84
2021/04/01 08:13:37;;;;;;;14.37;6.47;;;26.60;22.40;;;;;;5062450;28;20436;-85
2021/04/01 08:16:08;;;;;;;13.97;7.20;;;26.90;22.50;;;;;;5062897;28;20428;-86
2021/04/01 08:18:37;;;;;;;17.67;6.00;;;27.00;22.60;;;;;;5061752;28;20913;-85
2021/04/01 08:21:05;;;;;;;19.03;6.87;;;27.00;22.60;;;;;;5061437;28;20521;-85
2021/04/01 08:23:34;;;;;;;18.13;7.63;;;27.00;22.60;;;;;;5064065;28;20464;-86
2021/04/01 08:26:16;;;;;;;23.87;6.80;;;27.50;22.20;;;;;;5062778;28;20436;-87
2021/04/01 08:28:57;;;;;;;15.80;7.13;;;27.70;22.90;;;;;;5066099;28;20444;-87
2021/04/01 08:34:20;;;;;;;15.83;6.50;;;27.40;23.40;;;;;;5080036;28;20507;-87
2021/04/01 08:36:49;;;;;;;21.73;6.17;;;28.20;22.80;;;;;;5080177;28;20452;-86
2021/04/01 08:39:18;;;;;;;11.70;6.83;;;28.40;22.80;;;;;;5080059;28;20484;-86
2021/04/01 08:42:13;;;;;;;19.40;6.90;;;27.00;23.40;;;;;;5080919;28;20432;-87
2021/04/01 08:45:16;;;;;;;18.87;5.90;;;27.50;23.10;;;;;;5080667;28;20439;-87
2021/04/01 08:47:59;;;;;;;11.37;5.73;;;27.20;23.50;;;;;;5080224;28;20462;-87
2021/04/01 08:50:32;;;;;;;22.13;7.27;;;27.00;23.50;;;;;;5080506;28;20482;-87
2021/04/01 08:53:16;;;;;;;15.73;6.30;;;27.30;23.10;;;;;;5066998;28;20961;-87
2021/04/01 08:55:51;;;;;;;22.73;5.87;;;27.50;22.60;;;;;;5058229;28;20449;-87
2021/04/01 08:58:25;;;;;;;21.13;6.40;;;27.20;22.70;;;;;;5056879;28;20419;-87
2021/04/01 09:01:04;;;;;;;18.63;6.03;;;26.80;23.20;;;;;;5056427;28;20558;-87
2021/04/01 09:03:33;;;;;;;12.00;5.23;;;26.30;24.00;;;;;;5058252;28;20445;-87
2021/04/01 09:06:00;;;;;;;14.50;5.80;;;26.30;24.20;;;;;;5058545;28;20526;-87
2021/04/01 09:08:33;;;;;;;14.80;5.40;;;26.30;24.10;;;;;;5057618;28;20455;-87
2021/04/01 09:11:01;;;;;;;13.20;5.37;;;26.20;24.10;;;;;;5056673;28;20558;-87
2021/04/01 09:13:31;;;;;;;17.47;5.63;;;26.00;24.60;;;;;;5056037;28;20454;-87
2021/04/01 09:16:01;;;;;;;9.60;5.50;;;26.00;24.60;;;;;;5055804;28;20543;-87
2021/04/01 09:18:30;;;;;;;9.03;4.77;;;26.20;24.80;;;;;;5056586;28;20514;-88
2021/04/01 09:20:59;;;;;;;11.93;4.60;;;26.30;24.00;;;;;;5055554;28;20491;-88
2021/04/01 09:23:33;;;;;;;19.20;5.70;;;26.90;23.60;;;;;;5055812;28;20456;-88
2021/04/01 09:26:01;;;;;;;9.30;4.60;;;27.00;23.10;;;;;;5050613;28;20461;-88
2021/04/01 09:28:31;;;;;;;18.30;5.70;;;26.70;23.90;;;;;;5042048;28;20932;-88
2021/04/01 09:31:00;;;;;;;10.77;4.80;;;26.50;24.70;;;;;;5054815;28;20523;-88
2021/04/01 09:33:29;;;;;;;16.40;4.60;;;26.70;23.10;;;;;;5056686;28;20456;-87
2021/04/01 09:36:08;;;;;;;8.10;3.90;;;26.40;23.80;;;;;;5055872;28;20456;-88
2021/04/01 09:38:38;;;;;;;15.67;5.20;;;26.30;23.00;;;;;;5056607;28;20464;-88
2021/04/01 09:41:05;;;;;;;10.40;5.60;;;25.80;23.60;;;;;;5056674;28;20964;-88
2021/04/01 09:43:31;;;;;;;16.50;4.77;;;26.00;23.90;;;;;;5056847;28;20801;-88
2021/04/01 09:46:10;;;;;;;17.40;4.93;;;26.50;23.70;;;;;;5058569;28;20535;-89
2021/04/01 09:48:40;;;;;;;25.33;5.40;;;26.00;22.30;;;;;;5056887;28;20470;-88
2021/04/01 09:51:17;;;;;;;15.07;4.77;;;26.00;23.50;;;;;;5055531;28;20961;-88
2021/04/01 09:53:51;;;;;;;9.17;4.53;;;26.60;22.40;;;;;;5048237;28;20602;-86
2021/04/01 09:56:25;;;;;;;11.90;6.07;;;26.80;22.80;;;;;;5035762;28;20839;-85
2021/04/01 09:58:54;;;;;;;16.70;5.20;;;26.80;23.10;;;;;;5035759;28;20582;-87
2021/04/01 10:01:29;;;;;;;12.57;4.53;;;26.40;23.20;;;;;;5035893;28;20469;-86
2021/04/01 10:04:02;;;;;;;15.90;5.60;;;26.70;22.50;;;;;;5035808;28;20441;-86
2021/04/01 10:06:35;;;;;;;17.23;4.40;;;26.70;22.70;;;;;;5035168;28;20507;-86
2021/04/01 10:09:10;;;;;;;12.23;3.90;;;27.10;22.60;;;;;;5036193;28;20491;-87
2021/04/01 10:11:42;;;;;;;15.73;4.60;;;27.20;21.40;;;;;;5034732;28;20818;-85
2021/04/01 10:14:11;;;;;;;5.60;3.33;;;27.30;21.40;;;;;;5035333;28;20469;-86
2021/04/01 10:16:50;;;;;;;12.63;3.67;;;26.90;21.70;;;;;;5036678;28;20456;-87
2021/04/01 10:19:19;;;;;;;12.93;3.67;;;27.10;21.50;;;;;;5039651;28;20567;-87
2021/04/01 10:21:46;;;;;;;12.90;4.03;;;27.10;21.80;;;;;;5037393;28;20441;-87
2021/04/01 10:24:23;;;;;;;7.83;3.60;;;26.80;22.10;;;;;;5038271;28;20535;-88
2021/04/01 10:27:02;;;;;;;12.50;4.20;;;26.60;21.90;;;;;;5047711;28;20414;-89
2021/04/01 10:29:40;;;;;;;10.67;3.90;;;26.60;22.30;;;;;;5041788;28;20484;-88
2021/04/01 10:32:08;;;;;;;7.67;3.90;;;26.90;22.00;;;;;;5040234;28;20447;-88
2021/04/01 10:34:37;;;;;;;8.93;3.60;;;27.30;21.80;;;;;;5037733;28;20469;-88
2021/04/01 10:37:08;;;;;;;10.40;3.57;;;27.10;22.40;;;;;;5037134;28;20429;-89
2021/04/01 10:39:37;;;;;;;12.20;4.10;;;26.80;22.50;;;;;;5037548;28;20481;-89
2021/04/01 10:42:06;;;;;;;6.07;3.37;;;26.70;22.40;;;;;;5037574;28;20449;-88
2021/04/01 10:44:33;;;;;;;13.63;3.50;;;26.60;22.40;;;;;;5039622;28;20503;-89
2021/04/01 10:47:01;;;;;;;13.00;3.60;;;26.60;21.80;;;;;;5041800;28;20470;-87
2021/04/01 10:49:31;;;;;;;9.67;3.50;;;26.80;22.00;;;;;;5058018;28;20506;-88
2021/04/01 10:52:02;;;;;;;7.77;3.20;;;26.90;21.90;;;;;;5057236;28;20973;-88
2021/04/01 10:54:37;;;;;;;6.50;3.30;;;27.10;21.80;;;;;;5055112;28;20484;-89
2021/04/01 10:57:06;;;;;;;5.87;3.40;;;26.70;21.70;;;;;;5056069;28;20408;-89
2021/04/01 10:59:44;;;;;;;10.07;3.63;;;26.70;22.00;;;;;;5056776;28;20476;-88
2021/04/01 11:02:14;;;;;;;4.53;2.87;;;26.60;21.50;;;;;;5072873;28;20420;-88
2021/04/01 11:04:45;;;;;;;13.23;3.67;;;26.70;21.50;;;;;;5073558;28;20460;-89
2021/04/01 11:07:12;;;;;;;6.13;3.00;;;26.60;21.30;;;;;;5074221;28;20444;-88
2021/04/01 11:09:46;;;;;;;8.40;3.30;;;26.80;21.20;;;;;;5074684;28;20455;-88
2021/04/01 11:12:17;;;;;;;9.97;3.30;;;27.20;21.80;;;;;;5077243;28;20439;-88
2021/04/01 11:14:46;;;;;;;7.30;3.40;;;26.90;21.00;;;;;;5073615;28;20475;-89
2021/04/01 11:17:16;;;;;;;5.47;3.20;;;27.40;20.80;;;;;;5075294;28;20444;-88
2021/04/01 11:19:44;;;;;;;6.83;3.40;;;27.40;20.90;;;;;;5074139;28;20517;-87
2021/04/01 11:22:10;;;;;;;8.23;3.13;;;27.30;21.50;;;;;;5058779;28;20930;-89
2021/04/01 11:24:38;;;;;;;5.17;3.50;;;27.00;21.10;;;;;;5058430;28;20977;-89
2021/04/01 11:27:11;;;;;;;7.57;2.93;;;26.80;21.80;;;;;;5059781;28;20452;-89
2021/04/01 11:29:40;;;;;;;3.33;3.03;;;26.80;21.90;;;;;;5059560;28;20875;-89
2021/04/01 11:32:26;;;;;;;6.10;3.73;;;27.30;21.50;;;;;;5060271;28;20474;-90
2021/04/01 11:34:54;;;;;;;7.17;3.30;;;27.60;21.50;;;;;;5063678;28;20436;-88
2021/04/01 11:37:24;;;;;;;5.77;3.50;;;27.60;21.40;;;;;;5066792;28;20444;-88
2021/04/01 11:39:57;;;;;;;10.50;4.20;;;27.30;21.20;;;;;;5061221;28;20506;-89
2021/04/01 11:42:25;;;;;;;8.13;4.00;;;27.10;21.70;;;;;;5057886;28;20436;-87
2021/04/01 11:44:57;;;;;;;8.57;3.30;;;27.30;21.10;;;;;;5058776;28;20538;-87
2021/04/01 11:47:25;;;;;;;4.30;3.23;;;27.30;21.30;;;;;;5057600;28;20460;-87
2021/04/01 11:49:53;;;;;;;8.93;3.47;;;27.50;21.30;;;;;;5056273;28;20471;-87
2021/04/01 11:52:21;;;;;;;11.33;4.10;;;27.70;20.60;;;;;;5059935;28;20925;-87
2021/04/01 11:54:51;;;;;;;7.63;3.67;;;27.80;21.20;;;;;;5061259;28;20476;-87
2021/04/01 11:57:24;;;;;;;6.33;3.30;;;27.90;21.00;;;;;;5060156;28;20437;-87
2021/04/01 12:00:00;;;;;;;10.47;3.87;;;28.10;20.60;;;;;;5056681;28;20534;-87
2021/04/01 12:02:28;;;;;;;4.70;3.33;;;28.20;20.30;;;;;;5057221;28;20428;-87
2021/04/01 12:04:57;;;;;;;11.17;3.87;;;28.40;20.30;;;;;;5057189;28;20456;-87
2021/04/01 12:07:23;;;;;;;8.10;2.97;;;28.50;20.40;;;;;;5057448;28;20812;-87
2021/04/01 12:09:51;;;;;;;6.37;3.00;;;28.50;20.20;;;;;;5057025;28;20514;-87
2021/04/01 12:12:29;;;;;;;10.83;3.57;;;28.40;19.90;;;;;;5055907;28;20444;-88
2021/04/01 12:14:59;;;;;;;10.10;4.20;;;28.40;19.80;;;;;;5055249;28;20507;-87
2021/04/01 12:17:40;;;;;;;9.03;3.57;;;28.40;20.20;;;;;;5055834;28;20487;-87
2021/04/01 12:20:13;;;;;;;7.63;3.47;;;28.40;19.70;;;;;;5055646;28;20488;-87
2021/04/01 12:22:42;;;;;;;15.43;3.57;;;28.20;19.80;;;;;;5055410;28;20416;-87
2021/04/01 12:25:14;;;;;;;10.23;3.33;;;28.50;20.00;;;;;;5055385;28;20519;-87
2021/04/01 12:27:48;;;;;;;10.10;3.70;;;28.70;20.00;;;;;;5056537;28;20409;-87
2021/04/01 12:30:23;;;;;;;11.57;3.70;;;28.50;20.40;;;;;;5054775;28;20526;-87
2021/04/01 12:32:50;;;;;;;9.77;3.60;;;28.90;20.00;;;;;;5060148;28;20436;-87
2021/04/01 12:35:18;;;;;;;7.70;3.53;;;28.90;20.00;;;;;;5063911;28;20456;-87
2021/04/01 12:37:57;;;;;;;6.40;3.83;;;28.90;19.90;;;;;;5062407;28;20455;-87
2021/04/01 12:40:25;;;;;;;4.80;3.57;;;28.90;19.30;;;;;;5062088;28;20491;-86
2021/04/01 12:42:52;;;;;;;13.20;3.53;;;29.10;19.30;;;;;;5063273;28;20440;-87
2021/04/01 12:45:28;;;;;;;10.13;3.67;;;29.10;19.60;;;;;;5060220;28;20448;-88
2021/04/01 12:48:07;;;;;;;9.47;3.80;;;29.00;19.50;;;;;;5058423;28;20805;-87
2021/04/01 12:50:34;;;;;;;7.23;3.27;;;29.40;19.10;;;;;;5059311;28;20463;-88
2021/04/01 12:53:01;;;;;;;8.73;3.80;;;29.20;18.90;;;;;;5058717;28;20555;-88
2021/04/01 12:58:53;;;;;;;4.53;3.10;;;29.10;19.20;;;;;;5010872;28;20433;-88
2021/04/01 13:01:26;;;;;;;7.93;3.40;;;29.30;19.40;;;;;;5060960;28;20842;-88
2021/04/01 13:03:53;;;;;;;9.30;3.37;;;29.40;19.30;;;;;;5058551;28;20535;-88
2021/04/01 13:06:23;;;;;;;5.97;3.53;;;29.50;19.40;;;;;;5061017;28;20456;-88
2021/04/01 13:08:55;;;;;;;5.03;3.03;;;29.60;18.80;;;;;;5060781;28;20468;-88
2021/04/01 13:11:22;;;;;;;8.77;2.80;;;29.60;19.20;;;;;;5059576;28;20487;-88
2021/04/01 13:13:58;;;;;;;7.57;2.90;;;29.30;19.20;;;;;;5059588;28;20454;-88
2021/04/01 13:16:27;;;;;;;13.47;4.10;;;28.50;20.20;;;;;;5060467;28;20419;-88
2021/04/01 13:18:54;;;;;;;10.47;3.73;;;28.00;21.00;;;;;;5060001;28;20524;-88
2021/04/01 13:21:35;;;;;;;23.10;4.07;;;27.10;22.60;;;;;;5059518;28;20530;-88
2021/04/01 13:24:08;;;;;;;9.13;3.80;;;26.80;22.50;;;;;;5061532;28;20491;-88
2021/04/01 13:26:36;;;;;;;13.43;4.07;;;26.70;22.90;;;;;;5062365;28;20437;-87
2021/04/01 13:29:06;;;;;;;7.10;3.67;;;26.90;22.70;;;;;;5073528;28;20455;-88
2021/04/01 13:31:40;;;;;;;13.70;4.50;;;26.80;22.60;;;;;;5075759;28;20417;-87
2021/04/01 13:34:11;;;;;;;7.80;3.73;;;26.40;23.10;;;;;;5076674;28;20437;-87
2021/04/01 13:36:41;;;;;;;8.30;3.97;;;26.20;23.10;;;;;;5064506;28;20824;-87
2021/04/01 13:39:09;;;;;;;9.00;4.10;;;26.10;23.90;;;;;;5067072;28;20447;-88
2021/04/01 13:41:59;;;;;;;6.90;3.83;;;25.70;25.00;;;;;;5071382;28;20472;-88
2021/04/01 13:44:26;;;;;;;18.30;4.63;;;26.00;24.80;;;;;;5079986;28;20459;-88
2021/04/01 13:46:54;;;;;;;13.37;4.47;;;25.70;24.60;;;;;;5077640;28;20465;-88
2021/04/01 13:49:26;;;;;;;6.50;3.90;;;25.60;24.70;;;;;;5070488;28;20479;-88
2021/04/01 13:51:56;;;;;;;15.87;4.47;;;25.80;24.10;;;;;;5065005;28;20416;-89
2021/04/01 13:54:32;;;;;;;11.13;3.53;;;26.50;24.10;;;;;;5079569;28;20459;-89